createdAt,value
2018-03-31T00:00:40.079Z,5.50
2018-03-31T00:03:07.823Z,5.10
2018-03-31T00:05:34.862Z,4.80
2018-03-31T00:08:01.864Z,5.97
2018-03-31T00:10:29.625Z,5.50
2018-03-31T00:12:56.626Z,5.00
2018-03-31T00:15:23.619Z,5.10
2018-03-31T00:17:50.619Z,5.47
2018-03-31T00:20:18.379Z,4.43
2018-03-31T00:22:46.187Z,4.83
2018-03-31T00:25:13.959Z,4.93
2018-03-31T00:27:41.731Z,5.30
2018-03-31T00:30:09.508Z,4.97
2018-03-31T00:32:37.271Z,5.13
2018-03-31T00:35:04.266Z,4.83
2018-03-31T00:37:31.272Z,5.13
2018-03-31T00:39:58.356Z,5.10
2018-03-31T00:42:26.112Z,5.30
2018-03-31T00:44:53.151Z,5.43
2018-03-31T00:47:20.162Z,5.50
2018-03-31T00:49:47.967Z,5.30
2018-03-31T00:52:14.987Z,5.30
2018-03-31T00:54:42.755Z,5.37
2018-03-31T00:57:10.554Z,5.30
2018-03-31T00:59:38.326Z,5.07
2018-03-31T01:02:06.112Z,4.90
2018-03-31T01:04:33.158Z,5.20
2018-03-31T01:07:00.930Z,4.90
2018-03-31T01:09:28.739Z,5.03
2018-03-31T01:11:55.754Z,5.00
2018-03-31T01:14:22.814Z,4.57
2018-03-31T01:16:49.832Z,4.80
2018-03-31T01:19:16.851Z,4.93
2018-03-31T01:21:44.600Z,4.70
2018-03-31T01:24:11.635Z,5.00
2018-03-31T01:26:38.632Z,5.30
2018-03-31T01:29:05.667Z,4.80
2018-03-31T01:31:32.748Z,5.20
2018-03-31T01:33:59.720Z,4.87
2018-03-31T01:36:26.698Z,4.90
2018-03-31T01:38:53.731Z,5.17
2018-03-31T01:41:20.782Z,5.13
2018-03-31T01:43:47.789Z,4.90
2018-03-31T01:46:14.788Z,4.93
2018-03-31T01:48:41.778Z,4.80
2018-03-31T01:51:09.580Z,5.33
2018-03-31T01:53:36.623Z,4.53
2018-03-31T01:56:04.379Z,4.57
2018-03-31T01:58:31.374Z,4.80
2018-03-31T02:00:58.418Z,4.70
2018-03-31T02:03:26.156Z,4.90
2018-03-31T02:05:53.154Z,4.97
2018-03-31T02:08:20.915Z,4.57
2018-03-31T02:10:48.715Z,4.90
2018-03-31T02:13:16.483Z,4.60
2018-03-31T02:15:44.246Z,4.67
2018-03-31T02:18:11.251Z,4.57
2018-03-31T02:20:38.258Z,4.80
2018-03-31T02:23:06.039Z,4.83
2018-03-31T02:25:33.822Z,4.17
2018-03-31T02:28:01.605Z,4.53
2018-03-31T02:30:29.363Z,4.80
2018-03-31T02:32:56.375Z,4.87
2018-03-31T02:35:23.360Z,4.80
2018-03-31T02:37:50.348Z,5.00
2018-03-31T02:40:18.125Z,4.70
2018-03-31T02:42:45.899Z,4.80
2018-03-31T02:45:12.889Z,4.27
2018-03-31T02:47:39.891Z,4.93
2018-03-31T02:50:06.885Z,4.53
2018-03-31T02:52:34.645Z,4.40
2018-03-31T02:55:01.694Z,4.80
2018-03-31T02:57:28.705Z,4.50
2018-03-31T02:59:55.694Z,4.50
2018-03-31T03:02:22.670Z,4.60
2018-03-31T03:04:49.667Z,4.90
2018-03-31T03:07:17.438Z,4.37
2018-03-31T03:09:45.300Z,4.70
2018-03-31T03:12:12.283Z,4.60
2018-03-31T03:14:40.039Z,4.50
2018-03-31T03:17:07.819Z,4.73
2018-03-31T03:19:34.868Z,4.00
2018-03-31T03:22:01.856Z,4.50
2018-03-31T03:24:28.894Z,4.63
2018-03-31T03:26:55.902Z,4.53
2018-03-31T03:29:22.892Z,4.80
2018-03-31T03:31:49.895Z,4.47
2018-03-31T03:34:16.886Z,4.20
2018-03-31T03:36:43.897Z,4.33
2018-03-31T03:39:11.646Z,5.10
2018-03-31T03:41:38.651Z,4.70
2018-03-31T03:44:05.642Z,4.40
2018-03-31T03:46:32.641Z,4.57
2018-03-31T03:49:00.421Z,4.53
2018-03-31T03:51:27.471Z,4.60
2018-03-31T03:53:54.519Z,4.67
2018-03-31T03:56:21.518Z,4.50
2018-03-31T03:58:49.275Z,4.83
2018-03-31T04:01:16.365Z,4.30
2018-03-31T04:03:43.371Z,5.13
2018-03-31T04:06:10.414Z,4.90
2018-03-31T04:08:37.423Z,4.30
2018-03-31T04:11:05.171Z,5.23
2018-03-31T04:13:32.181Z,4.50
2018-03-31T04:15:59.226Z,4.47
2018-03-31T04:18:27.026Z,4.97
2018-03-31T04:20:54.019Z,5.07
2018-03-31T04:23:21.131Z,5.00
2018-03-31T04:25:48.882Z,4.47
2018-03-31T04:28:16.740Z,4.60
2018-03-31T04:30:43.725Z,4.47
2018-03-31T04:33:11.497Z,4.53
2018-03-31T04:35:38.551Z,4.43
2018-03-31T04:38:06.389Z,4.90
2018-03-31T04:40:33.391Z,4.90
2018-03-31T04:43:00.377Z,4.77
2018-03-31T04:45:27.362Z,4.70
2018-03-31T04:47:54.367Z,5.10
2018-03-31T04:50:21.366Z,4.77
2018-03-31T04:52:48.358Z,5.30
2018-03-31T04:55:15.361Z,4.73
2018-03-31T04:57:42.364Z,4.73
2018-03-31T05:00:09.378Z,5.20
2018-03-31T05:02:37.176Z,5.17
2018-03-31T05:05:04.166Z,5.10
2018-03-31T05:07:31.192Z,4.80
2018-03-31T05:09:58.190Z,4.70
2018-03-31T05:12:25.154Z,5.07
2018-03-31T05:14:52.159Z,5.17
2018-03-31T05:17:19.917Z,5.07
2018-03-31T05:19:46.955Z,4.83
2018-03-31T05:22:13.949Z,4.87
2018-03-31T05:24:41.912Z,4.80
2018-03-31T05:27:09.690Z,5.27
2018-03-31T05:29:36.742Z,4.77
2018-03-31T05:32:03.737Z,5.20
2018-03-31T05:34:30.743Z,5.10
2018-03-31T05:36:58.502Z,4.70
2018-03-31T05:39:25.494Z,4.67
2018-03-31T05:41:53.268Z,4.90
2018-03-31T05:44:20.251Z,4.57
2018-03-31T05:46:48.035Z,4.63
2018-03-31T05:49:15.812Z,4.60
2018-03-31T05:51:42.818Z,4.90
2018-03-31T05:54:09.841Z,5.67
2018-03-31T05:56:36.835Z,5.70
2018-03-31T05:59:03.834Z,4.77
2018-03-31T06:01:31.606Z,5.07
2018-03-31T06:03:59.366Z,5.10
2018-03-31T06:06:26.341Z,5.00
2018-03-31T06:08:54.124Z,5.23
2018-03-31T06:11:21.138Z,5.27
2018-03-31T06:13:48.123Z,4.50
2018-03-31T06:16:15.111Z,5.17
2018-03-31T06:18:42.939Z,4.83
2018-03-31T06:21:09.972Z,5.20
2018-03-31T06:23:36.962Z,4.87
2018-03-31T06:26:03.954Z,4.90
2018-03-31T06:28:31.722Z,5.10
2018-03-31T06:30:58.766Z,4.87
2018-03-31T06:33:25.802Z,5.67
2018-03-31T06:35:52.805Z,5.27
2018-03-31T06:38:20.553Z,5.60
2018-03-31T06:40:47.575Z,5.13
2018-03-31T06:43:14.561Z,4.73
2018-03-31T06:45:41.567Z,4.53
2018-03-31T06:48:09.335Z,5.30
2018-03-31T06:50:37.133Z,4.87
2018-03-31T06:53:05.079Z,5.07
2018-03-31T06:55:32.062Z,5.50
2018-03-31T06:57:59.068Z,4.90
2018-03-31T07:00:26.096Z,5.33
2018-03-31T07:02:53.102Z,4.97
2018-03-31T07:05:20.134Z,5.60
2018-03-31T07:07:47.140Z,5.17
2018-03-31T07:10:14.156Z,5.30
2018-03-31T07:12:41.176Z,5.40
2018-03-31T07:15:08.927Z,5.03
2018-03-31T07:17:35.953Z,5.23
2018-03-31T07:20:02.946Z,5.00
2018-03-31T07:22:29.942Z,4.93
2018-03-31T07:24:57.007Z,4.93
2018-03-31T07:27:24.027Z,5.40
2018-03-31T07:29:51.034Z,5.10
2018-03-31T07:32:18.027Z,4.70
2018-03-31T07:34:45.015Z,5.33
2018-03-31T07:37:12.819Z,5.20
2018-03-31T07:39:39.790Z,4.77
2018-03-31T07:42:06.803Z,5.23
2018-03-31T07:44:33.799Z,5.37
2018-03-31T07:47:00.794Z,5.60
2018-03-31T07:49:28.603Z,5.10
2018-03-31T07:51:56.378Z,5.23
2018-03-31T07:54:23.381Z,5.23
2018-03-31T07:56:50.391Z,5.07
2018-03-31T07:59:17.394Z,5.40
2018-03-31T08:01:44.365Z,5.90
2018-03-31T08:04:11.382Z,4.53
2018-03-31T08:06:39.159Z,5.13
2018-03-31T08:09:06.988Z,5.20
2018-03-31T08:11:34.000Z,5.10
2018-03-31T08:14:01.751Z,5.00
2018-03-31T08:16:28.774Z,5.13
2018-03-31T08:18:55.773Z,4.90
2018-03-31T08:21:22.798Z,5.10
2018-03-31T08:23:49.837Z,5.33
2018-03-31T08:26:16.811Z,5.30
2018-03-31T08:28:43.859Z,4.60
2018-03-31T08:31:10.869Z,5.27
2018-03-31T08:33:37.931Z,4.50
2018-03-31T08:36:04.950Z,5.23
2018-03-31T08:38:31.946Z,5.50
2018-03-31T08:40:58.923Z,5.03
2018-03-31T08:43:26.690Z,5.03
2018-03-31T08:45:53.671Z,4.83
2018-03-31T08:48:21.530Z,5.17
2018-03-31T08:50:48.543Z,5.20
2018-03-31T08:53:15.526Z,5.23
2018-03-31T08:55:42.519Z,5.47
2018-03-31T08:58:10.278Z,4.93
2018-03-31T09:00:37.312Z,5.00
2018-03-31T09:03:04.303Z,5.57
2018-03-31T09:05:32.086Z,5.50
2018-03-31T09:07:59.851Z,5.50
2018-03-31T09:10:27.617Z,4.93
2018-03-31T09:12:54.604Z,5.20
2018-03-31T09:15:21.611Z,4.63
2018-03-31T09:17:48.599Z,5.30
2018-03-31T09:20:15.617Z,5.17
2018-03-31T09:22:45.782Z,5.07
2018-03-31T09:25:09.642Z,5.33
2018-03-31T09:27:36.646Z,5.80
2018-03-31T09:30:04.430Z,5.43
2018-03-31T09:32:32.178Z,5.90
2018-03-31T09:34:59.180Z,5.17
2018-03-31T09:37:26.166Z,5.00
2018-03-31T09:39:53.220Z,4.87
2018-03-31T09:42:20.227Z,5.17
2018-03-31T09:44:47.279Z,5.60
2018-03-31T09:47:14.294Z,5.10
2018-03-31T09:49:41.288Z,5.10
2018-03-31T09:52:08.338Z,5.70
2018-03-31T09:54:36.081Z,5.50
2018-03-31T09:57:03.054Z,5.60
2018-03-31T09:59:30.105Z,5.47
2018-03-31T10:01:57.095Z,5.60
2018-03-31T10:04:24.117Z,5.93
2018-03-31T10:06:51.127Z,5.40
2018-03-31T10:09:18.158Z,5.30
2018-03-31T10:11:45.202Z,5.37
2018-03-31T10:14:12.210Z,5.37
2018-03-31T10:16:39.227Z,5.10
2018-03-31T10:19:06.211Z,6.07
2018-03-31T10:21:34.034Z,6.07
2018-03-31T10:24:01.815Z,6.13
2018-03-31T10:26:28.861Z,6.63
2018-03-31T10:28:55.854Z,7.00
2018-03-31T10:31:22.839Z,8.30
2018-03-31T10:33:49.839Z,8.90
2018-03-31T10:36:17.647Z,8.63
2018-03-31T10:38:44.680Z,9.97
2018-03-31T10:41:12.431Z,9.53
2018-03-31T10:43:39.419Z,9.80
2018-03-31T10:46:06.470Z,9.80
2018-03-31T10:48:34.242Z,10.60
2018-03-31T10:51:02.006Z,11.10
2018-03-31T10:53:29.022Z,10.30
2018-03-31T10:55:56.019Z,11.30
2018-03-31T10:58:23.788Z,10.90
2018-03-31T11:00:50.776Z,11.97
2018-03-31T11:03:18.535Z,12.57
2018-03-31T11:05:45.540Z,11.93
2018-03-31T11:08:12.526Z,11.40
2018-03-31T11:10:39.559Z,11.83
2018-03-31T11:13:06.579Z,12.23
2018-03-31T11:15:34.390Z,11.80
2018-03-31T11:18:01.391Z,12.17
2018-03-31T11:20:28.404Z,13.07
2018-03-31T11:22:55.480Z,13.97
2018-03-31T11:25:22.477Z,12.40
2018-03-31T11:27:49.470Z,12.57
2018-03-31T11:30:17.232Z,13.03
2018-03-31T11:32:44.994Z,13.60
2018-03-31T11:35:12.033Z,12.80
2018-03-31T11:37:39.035Z,13.03
2018-03-31T11:40:06.807Z,13.43
2018-03-31T11:42:34.575Z,13.23
2018-03-31T11:45:01.562Z,12.70
2018-03-31T11:47:28.580Z,12.40
2018-03-31T11:49:55.602Z,14.10
2018-03-31T11:52:22.605Z,14.23
2018-03-31T11:54:49.594Z,13.70
2018-03-31T11:57:17.364Z,13.20
2018-03-31T11:59:45.122Z,12.80
2018-03-31T12:02:12.110Z,13.97
2018-03-31T12:04:39.106Z,13.23
2018-03-31T12:07:06.175Z,13.47
2018-03-31T12:09:33.195Z,13.70
2018-03-31T12:12:00.205Z,12.70
2018-03-31T12:14:27.207Z,13.93
2018-03-31T12:16:54.197Z,13.70
2018-03-31T12:19:21.233Z,13.17
2018-03-31T12:21:48.239Z,13.53
2018-03-31T12:24:15.243Z,14.13
2018-03-31T12:26:42.255Z,13.40
2018-03-31T12:29:09.302Z,13.17
2018-03-31T12:31:36.296Z,12.97
2018-03-31T12:34:04.091Z,11.97
2018-03-31T12:36:31.858Z,12.17
2018-03-31T12:38:58.887Z,12.63
2018-03-31T12:41:26.634Z,14.27
2018-03-31T12:43:53.638Z,13.33
2018-03-31T12:46:21.401Z,13.30
2018-03-31T12:48:48.440Z,12.67
2018-03-31T12:51:15.426Z,12.90
2018-03-31T12:53:42.417Z,13.17
2018-03-31T12:56:09.428Z,13.50
2018-03-31T12:58:36.435Z,12.90
2018-03-31T13:01:03.428Z,12.77
2018-03-31T13:03:30.434Z,12.70
2018-03-31T13:05:57.438Z,12.90
2018-03-31T13:08:24.442Z,12.87
2018-03-31T13:10:51.473Z,12.10
2018-03-31T13:13:18.536Z,12.40
2018-03-31T13:15:45.672Z,12.60
2018-03-31T13:18:12.700Z,11.93
2018-03-31T13:20:40.503Z,12.87
2018-03-31T13:23:07.522Z,13.50
2018-03-31T13:25:35.294Z,11.83
2018-03-31T13:28:02.290Z,13.00
2018-03-31T13:30:30.068Z,11.87
2018-03-31T13:32:57.082Z,12.53
2018-03-31T13:35:24.099Z,11.73
2018-03-31T13:37:51.070Z,12.80
2018-03-31T13:40:18.083Z,12.07
2018-03-31T13:42:45.077Z,12.83
2018-03-31T13:45:12.106Z,12.00
2018-03-31T13:47:39.877Z,12.00
2018-03-31T13:50:07.663Z,12.30
2018-03-31T13:52:35.407Z,11.87
2018-03-31T13:55:02.446Z,12.03
2018-03-31T13:57:30.287Z,11.10
2018-03-31T13:59:57.313Z,11.87
2018-03-31T14:02:24.295Z,11.83
2018-03-31T14:04:52.103Z,11.60
2018-03-31T14:07:19.081Z,11.10
2018-03-31T14:09:46.112Z,11.90
2018-03-31T14:12:13.118Z,11.70
2018-03-31T14:14:40.922Z,11.27
2018-03-31T14:17:08.671Z,11.07
2018-03-31T14:19:35.702Z,11.87
2018-03-31T14:22:02.716Z,11.40
2018-03-31T14:24:30.499Z,10.90
2018-03-31T14:26:58.262Z,11.90
2018-03-31T14:29:26.037Z,10.60
2018-03-31T14:31:53.807Z,11.53
2018-03-31T14:34:20.803Z,11.03
2018-03-31T14:36:47.839Z,12.03
2018-03-31T14:39:15.615Z,11.40
2018-03-31T14:41:43.377Z,11.20
2018-03-31T14:44:10.400Z,10.73
2018-03-31T14:46:37.407Z,11.60
2018-03-31T14:49:05.182Z,11.77
2018-03-31T14:51:32.957Z,11.33
2018-03-31T14:54:00.727Z,10.57
2018-03-31T14:56:27.734Z,11.20
2018-03-31T14:58:54.747Z,10.47
2018-03-31T15:01:23.352Z,10.37
2018-03-31T15:03:50.337Z,9.70
2018-03-31T15:06:17.362Z,10.73
2018-03-31T15:08:44.366Z,10.53
2018-03-31T15:11:11.370Z,11.57
2018-03-31T15:13:38.351Z,10.60
2018-03-31T15:16:06.110Z,10.67
2018-03-31T15:18:33.102Z,10.40
2018-03-31T15:21:00.150Z,9.43
2018-03-31T15:23:27.125Z,10.93
2018-03-31T15:25:54.130Z,9.93
2018-03-31T15:28:21.130Z,10.80
2018-03-31T15:30:48.930Z,10.13
2018-03-31T15:33:15.951Z,11.40
2018-03-31T15:35:43.732Z,10.80
2018-03-31T15:38:10.784Z,10.40
2018-03-31T15:40:37.786Z,10.77
2018-03-31T15:43:04.773Z,11.07
2018-03-31T15:45:32.531Z,11.07
2018-03-31T15:47:59.538Z,10.70
2018-03-31T15:50:26.551Z,9.90
2018-03-31T15:52:53.602Z,9.70
2018-03-31T15:55:20.584Z,10.47
2018-03-31T15:57:47.603Z,10.87
2018-03-31T16:00:15.354Z,9.90
2018-03-31T16:02:42.382Z,10.50
2018-03-31T16:05:09.374Z,10.37
2018-03-31T16:07:36.435Z,10.10
2018-03-31T16:10:04.224Z,9.60
2018-03-31T16:12:31.994Z,10.40
2018-03-31T16:14:59.753Z,10.33
2018-03-31T16:17:26.803Z,10.50
2018-03-31T16:19:53.776Z,10.13
2018-03-31T16:22:21.555Z,10.20
2018-03-31T16:24:48.548Z,10.07
2018-03-31T16:27:15.530Z,9.93
2018-03-31T16:29:42.526Z,10.80
2018-03-31T16:32:10.305Z,10.40
2018-03-31T16:34:38.133Z,10.03
2018-03-31T16:37:05.854Z,10.30
2018-03-31T16:39:32.862Z,9.63
2018-03-31T16:41:59.843Z,9.60
2018-03-31T16:44:26.862Z,10.50
2018-03-31T16:46:53.918Z,11.17
2018-03-31T16:49:20.916Z,10.27
2018-03-31T16:51:48.019Z,10.70
2018-03-31T16:54:15.009Z,10.27
2018-03-31T16:56:42.022Z,10.57
2018-03-31T16:59:09.010Z,10.40
2018-03-31T17:01:37.063Z,9.90
2018-03-31T17:04:04.885Z,10.27
2018-03-31T17:06:31.857Z,10.80
2018-03-31T17:08:58.877Z,10.23
2018-03-31T17:11:25.878Z,10.43
2018-03-31T17:13:52.919Z,10.70
2018-03-31T17:16:19.918Z,11.73
2018-03-31T17:18:46.931Z,9.97
2018-03-31T17:21:14.682Z,11.40
2018-03-31T17:23:41.688Z,10.67
2018-03-31T17:26:08.699Z,10.20
2018-03-31T17:28:35.708Z,11.07
2018-03-31T17:31:02.710Z,10.80
2018-03-31T17:33:29.750Z,11.23
2018-03-31T17:35:56.740Z,10.97
2018-03-31T17:38:23.744Z,11.37
2018-03-31T17:40:50.750Z,10.93
2018-03-31T17:43:17.772Z,11.20
2018-03-31T17:45:44.766Z,10.83
2018-03-31T17:48:11.788Z,12.00
2018-03-31T17:50:38.847Z,12.13
2018-03-31T17:53:05.859Z,10.70
2018-03-31T17:55:33.650Z,11.10
2018-03-31T17:58:00.648Z,11.47
2018-03-31T18:00:27.656Z,11.33
2018-03-31T18:02:55.412Z,10.87
2018-03-31T18:05:22.402Z,11.00
2018-03-31T18:07:50.162Z,11.23
2018-03-31T18:10:17.186Z,11.13
2018-03-31T18:12:44.167Z,11.53
2018-03-31T18:15:11.214Z,10.87
2018-03-31T18:17:38.329Z,10.90
2018-03-31T18:20:05.323Z,10.60
2018-03-31T18:22:32.311Z,11.73
2018-03-31T18:24:59.325Z,10.90
2018-03-31T18:27:26.354Z,10.90
2018-03-31T18:29:53.359Z,10.77
2018-03-31T18:32:20.358Z,10.53
2018-03-31T18:34:48.121Z,11.23
2018-03-31T18:37:15.138Z,11.40
2018-03-31T18:39:42.126Z,11.30
2018-03-31T18:42:09.154Z,11.50
2018-03-31T18:44:36.147Z,11.47
2018-03-31T18:47:03.155Z,10.90
2018-03-31T18:49:30.173Z,11.03
2018-03-31T18:51:57.198Z,11.40
2018-03-31T18:54:24.200Z,10.60
2018-03-31T18:56:51.206Z,11.37
2018-03-31T18:59:18.230Z,11.77
2018-03-31T19:01:46.002Z,11.43
2018-03-31T19:04:13.839Z,11.47
2018-03-31T19:06:40.959Z,11.50
2018-03-31T19:09:07.988Z,10.83
2018-03-31T19:11:34.979Z,11.77
2018-03-31T19:14:01.984Z,11.30
2018-03-31T19:16:34.613Z,10.80
2018-03-31T19:19:01.668Z,11.20
2018-03-31T19:21:28.678Z,10.73
2018-03-31T19:23:55.688Z,11.13
2018-03-31T19:26:22.698Z,11.80
2018-03-31T19:28:49.689Z,11.90
2018-03-31T19:31:16.684Z,11.10
2018-03-31T19:33:43.675Z,12.13
2018-03-31T19:36:16.394Z,11.87
2018-03-31T19:38:43.385Z,10.90
2018-03-31T19:41:11.149Z,12.53
2018-03-31T19:43:38.139Z,11.40
2018-03-31T19:46:05.131Z,12.30
2018-03-31T19:48:32.183Z,12.10
2018-03-31T19:50:59.176Z,12.00
2018-03-31T19:53:26.207Z,12.40
2018-03-31T19:55:53.227Z,12.17
2018-03-31T19:58:20.241Z,12.30
2018-03-31T20:00:47.244Z,11.90
2018-03-31T20:03:15.031Z,12.13
2018-03-31T20:05:42.063Z,12.57
2018-03-31T20:08:09.844Z,11.97
2018-03-31T20:10:37.585Z,12.73
2018-03-31T20:13:04.574Z,11.63
2018-03-31T20:15:32.366Z,11.43
2018-03-31T20:18:00.347Z,12.83
2018-03-31T20:20:27.374Z,12.40
2018-03-31T20:22:54.386Z,12.67
2018-03-31T20:25:21.385Z,12.00
2018-03-31T20:27:48.378Z,13.30
2018-03-31T20:30:16.135Z,14.23
2018-03-31T20:32:43.171Z,13.70
2018-03-31T20:35:10.159Z,13.43
2018-03-31T20:37:37.547Z,12.70
2018-03-31T20:40:04.564Z,13.17
2018-03-31T20:42:31.567Z,15.37
2018-03-31T20:44:59.330Z,13.30
2018-03-31T20:47:27.172Z,14.37
2018-03-31T20:49:54.170Z,13.97
2018-03-31T20:52:22.029Z,14.70
2018-03-31T20:54:49.035Z,14.90
2018-03-31T20:57:16.049Z,14.67
2018-03-31T20:59:43.062Z,14.10
2018-03-31T21:02:10.067Z,14.50
2018-03-31T21:04:37.135Z,13.97
2018-03-31T21:07:04.119Z,15.10
2018-03-31T21:09:31.110Z,15.53
2018-03-31T21:11:58.104Z,15.23
2018-03-31T21:14:25.133Z,15.23
2018-03-31T21:16:52.142Z,15.20
2018-03-31T21:19:19.939Z,15.73
2018-03-31T21:21:47.722Z,15.40
2018-03-31T21:24:14.777Z,15.20
2018-03-31T21:26:43.711Z,15.23
2018-03-31T21:29:10.742Z,15.93
2018-03-31T21:31:37.768Z,14.90
2018-03-31T21:34:05.566Z,16.07
2018-03-31T21:36:32.568Z,15.50
2018-03-31T21:38:59.572Z,16.80
2018-03-31T21:41:27.356Z,15.80
2018-03-31T21:43:54.357Z,16.00
2018-03-31T21:46:21.375Z,16.00
2018-03-31T21:48:49.138Z,16.47
2018-03-31T21:51:16.148Z,15.27
2018-03-31T21:53:43.142Z,16.53
2018-03-31T21:56:10.204Z,15.53
2018-03-31T21:58:37.194Z,16.30
2018-03-31T22:01:04.203Z,16.77
2018-03-31T22:03:31.222Z,16.70
2018-03-31T22:05:58.255Z,17.60
2018-03-31T22:08:25.278Z,17.70
2018-03-31T22:10:52.279Z,18.40
2018-03-31T22:13:25.617Z,17.73
2018-03-31T22:15:52.623Z,16.87
2018-03-31T22:18:19.626Z,17.53
2018-03-31T22:20:46.675Z,18.13
2018-03-31T22:23:14.462Z,17.60
2018-03-31T22:25:41.487Z,17.63
2018-03-31T22:28:08.490Z,17.70
2018-03-31T22:30:35.493Z,17.90
2018-03-31T22:33:02.489Z,18.07
2018-03-31T22:35:30.235Z,18.40
2018-03-31T22:37:57.240Z,17.77
2018-03-31T22:40:24.702Z,18.13
2018-03-31T22:42:51.740Z,17.43
2018-03-31T22:45:19.536Z,17.77
2018-03-31T22:47:46.529Z,19.17
2018-03-31T22:50:13.541Z,18.60
2018-03-31T22:52:41.365Z,18.47
2018-03-31T22:55:08.391Z,19.97
2018-03-31T22:57:35.411Z,18.60
2018-03-31T23:00:02.449Z,19.80
2018-03-31T23:02:29.454Z,18.63
2018-03-31T23:04:57.262Z,18.40
2018-03-31T23:07:24.609Z,19.57
2018-03-31T23:09:51.650Z,19.27
2018-03-31T23:12:19.418Z,19.73
2018-03-31T23:14:46.412Z,19.73
2018-03-31T23:17:13.432Z,19.67
2018-03-31T23:19:40.480Z,20.30
2018-03-31T23:22:07.605Z,20.53
2018-03-31T23:24:34.623Z,20.43
2018-03-31T23:27:01.650Z,20.00
2018-03-31T23:29:28.714Z,20.20
2018-03-31T23:31:55.716Z,19.30
2018-03-31T23:34:23.498Z,25.60
2018-03-31T23:36:50.510Z,23.23
2018-03-31T23:39:17.530Z,23.37
2018-03-31T23:41:44.551Z,22.83
2018-03-31T23:44:11.535Z,23.63
2018-03-31T23:46:38.548Z,24.13
2018-03-31T23:49:05.538Z,23.60
2018-03-31T23:51:33.322Z,23.10
2018-03-31T23:54:01.071Z,22.37
2018-03-31T23:56:28.101Z,21.57
2018-03-31T23:58:55.144Z,23.80
